Airfield :
LOGIN :

Register | Disclaimer

   EN    FR    IT 

 










Legend :    VFR   Marginal VFR   IFR   Intensive IFR   Very Intensive IFR
Visi :
Ceiling :
>= 8 km
>= 3000ft
5 to 8 km
1000 to 3000 ft
1500m to 5 km
500 to 1000 ft
800 to 1500m
200 to 500 ft
< 800m
< 200 ft
Symbols :   Thunderstorms  Fog  Heavy snow  Heavy precipitations  Wind > 20 kt
SIGMETs :     Misc.  Thunderstorms  Icing  Turbulence  Mountain Waves  Volcanic Ashes






- Airport Elevation : 245 ft
- IATA code : BIQ


LFBZ - Biarritz

CURRENT METAR :
  • 251000Z AUTO 30009KT 9999 BKN014 BKN022 OVC058 15/13 Q1011 BECMG 24010G20KT BKN040

EXPIRED METARs :
  • 250930Z AUTO 30007KT 9999 FEW016 OVC054 15/13 Q1010 BECMG 24010G20KT
  • 250900Z AUTO 29008KT 9999 -RA SCT013 BKN021 BKN030 15/13 Q1011 NOSIG
  • 250830Z AUTO 28010KT 250V310 9999 -RA FEW010/// BKN019/// BKN032/// ///TCU 15/13 Q1011 BECMG BKN040
  • 250800Z AUTO 21008KT 160V270 9999 OVC058 17/09 Q1010 NOSIG
  • 250730Z AUTO 20010G20KT 150V250 9999 BKN066 OVC100 18/08 Q1010 NOSIG

TAF TAF LFBZ
Valid from the 25 at 06:00 until the 26 at 06:00 UTC


250500Z 2506/2606 24010G20KT CAVOK
BECMG 2510/2512 -RA BKN040
TEMPO 2513/2515 30015G35KT 3000 RA BKN011
BECMG 2518/2520 NSW SCT030TCU BKN040
TEMPO 2521/2606 26015G30KT 3000 SHRA FEW020CB BKN030TCU
TEMPO 2600/2606 TSRA BKN015CB



MET'MAP, your aeronautical weather chart ! - Copyright ORBIFLY December 2007 - Disclaimer

ORBIFLY MET'MAP TEAM :

Programming & Development : Alexandra Zaïnal
Concept & original design : Baudouin d'Aumeries
Assistance for programming : Marc-Olivier Méhu
Technical & hardware support : Manuel Goepfert

Contact : metmap@orbifly.com




SOURCES & CREDITS :

   NOAA